sensor_id;sensor_type;location;lat;lon;timestamp;P1;durP1;ratioP1;P2;durP2;ratioP2
62796;SDS011;48839;48.546;-4.178;2023-08-06T00:00:27;15.15;;;3.20;;
62796;SDS011;48839;48.546;-4.178;2023-08-06T00:02:54;22.13;;;4.45;;
62796;SDS011;48839;48.546;-4.178;2023-08-06T00:05:20;22.38;;;3.38;;
62796;SDS011;48839;48.546;-4.178;2023-08-06T00:07:49;30.92;;;5.40;;
62796;SDS011;48839;48.546;-4.178;2023-08-06T00:10:15;17.85;;;3.17;;
62796;SDS011;48839;48.546;-4.178;2023-08-06T00:12:41;25.63;;;3.97;;
62796;SDS011;48839;48.546;-4.178;2023-08-06T00:15:08;33.58;;;4.18;;
62796;SDS011;48839;48.546;-4.178;2023-08-06T00:17:34;21.95;;;3.95;;
62796;SDS011;48839;48.546;-4.178;2023-08-06T00:20:00;19.45;;;4.18;;
62796;SDS011;48839;48.546;-4.178;2023-08-06T00:22:40;16.02;;;2.95;;
62796;SDS011;48839;48.546;-4.178;2023-08-06T00:25:06;20.67;;;4.15;;
62796;SDS011;48839;48.546;-4.178;2023-08-06T00:27:32;17.98;;;3.90;;
62796;SDS011;48839;48.546;-4.178;2023-08-06T00:29:58;17.70;;;3.78;;
62796;SDS011;48839;48.546;-4.178;2023-08-06T00:32:24;27.10;;;4.43;;
62796;SDS011;48839;48.546;-4.178;2023-08-06T00:34:50;18.30;;;3.58;;
62796;SDS011;48839;48.546;-4.178;2023-08-06T00:37:16;22.92;;;3.70;;
62796;SDS011;48839;48.546;-4.178;2023-08-06T00:39:43;16.42;;;3.83;;
62796;SDS011;48839;48.546;-4.178;2023-08-06T00:42:09;18.88;;;3.40;;
62796;SDS011;48839;48.546;-4.178;2023-08-06T00:44:36;22.88;;;3.47;;
62796;SDS011;48839;48.546;-4.178;2023-08-06T00:47:02;20.17;;;3.50;;
62796;SDS011;48839;48.546;-4.178;2023-08-06T00:49:28;26.90;;;5.68;;
62796;SDS011;48839;48.546;-4.178;2023-08-06T00:51:54;25.42;;;5.28;;
62796;SDS011;48839;48.546;-4.178;2023-08-06T00:54:20;17.13;;;3.53;;
62796;SDS011;48839;48.546;-4.178;2023-08-06T00:56:46;13.68;;;3.67;;
62796;SDS011;48839;48.546;-4.178;2023-08-06T00:59:13;24.08;;;4.10;;
62796;SDS011;48839;48.546;-4.178;2023-08-06T01:01:40;18.20;;;4.40;;
62796;SDS011;48839;48.546;-4.178;2023-08-06T01:04:06;25.83;;;3.70;;
62796;SDS011;48839;48.546;-4.178;2023-08-06T01:09:02;18.23;;;3.70;;
62796;SDS011;48839;48.546;-4.178;2023-08-06T01:14:08;14.70;;;3.65;;
62796;SDS011;48839;48.546;-4.178;2023-08-06T01:16:38;27.45;;;4.18;;
62796;SDS011;48839;48.546;-4.178;2023-08-06T01:19:05;17.98;;;3.42;;
62796;SDS011;48839;48.546;-4.178;2023-08-06T01:21:31;14.55;;;3.53;;
62796;SDS011;48839;48.546;-4.178;2023-08-06T01:23:57;15.95;;;3.38;;
62796;SDS011;48839;48.546;-4.178;2023-08-06T01:31:39;16.08;;;3.15;;
62796;SDS011;48839;48.546;-4.178;2023-08-06T01:34:08;18.38;;;3.45;;
62796;SDS011;48839;48.546;-4.178;2023-08-06T01:36:35;23.02;;;3.85;;
62796;SDS011;48839;48.546;-4.178;2023-08-06T01:39:01;26.63;;;4.30;;
62796;SDS011;48839;48.546;-4.178;2023-08-06T01:41:27;21.10;;;4.57;;
62796;SDS011;48839;48.546;-4.178;2023-08-06T01:43:54;19.85;;;3.92;;
62796;SDS011;48839;48.546;-4.178;2023-08-06T01:46:20;18.70;;;4.53;;
62796;SDS011;48839;48.546;-4.178;2023-08-06T01:48:46;20.42;;;5.97;;
62796;SDS011;48839;48.546;-4.178;2023-08-06T01:51:12;21.88;;;3.97;;
62796;SDS011;48839;48.546;-4.178;2023-08-06T01:53:38;17.45;;;3.42;;
62796;SDS011;48839;48.546;-4.178;2023-08-06T01:56:04;17.73;;;4.60;;
62796;SDS011;48839;48.546;-4.178;2023-08-06T01:58:30;14.27;;;3.42;;
62796;SDS011;48839;48.546;-4.178;2023-08-06T02:00:56;18.98;;;3.63;;
62796;SDS011;48839;48.546;-4.178;2023-08-06T02:03:22;19.83;;;3.85;;
62796;SDS011;48839;48.546;-4.178;2023-08-06T02:05:48;23.20;;;4.53;;
62796;SDS011;48839;48.546;-4.178;2023-08-06T02:08:14;19.17;;;4.32;;
62796;SDS011;48839;48.546;-4.178;2023-08-06T02:10:40;17.00;;;4.75;;
62796;SDS011;48839;48.546;-4.178;2023-08-06T02:13:06;19.65;;;4.38;;
62796;SDS011;48839;48.546;-4.178;2023-08-06T02:15:32;17.33;;;3.42;;
62796;SDS011;48839;48.546;-4.178;2023-08-06T02:17:58;19.45;;;4.38;;
62796;SDS011;48839;48.546;-4.178;2023-08-06T02:20:24;23.48;;;4.45;;
62796;SDS011;48839;48.546;-4.178;2023-08-06T02:22:50;15.82;;;3.05;;
62796;SDS011;48839;48.546;-4.178;2023-08-06T02:25:16;18.42;;;4.47;;
62796;SDS011;48839;48.546;-4.178;2023-08-06T02:27:42;18.25;;;3.33;;
62796;SDS011;48839;48.546;-4.178;2023-08-06T02:30:08;22.92;;;3.30;;
62796;SDS011;48839;48.546;-4.178;2023-08-06T02:32:34;14.00;;;3.15;;
62796;SDS011;48839;48.546;-4.178;2023-08-06T02:35:01;19.02;;;5.30;;
62796;SDS011;48839;48.546;-4.178;2023-08-06T02:37:27;14.35;;;3.17;;
62796;SDS011;48839;48.546;-4.178;2023-08-06T02:39:53;19.02;;;4.25;;
62796;SDS011;48839;48.546;-4.178;2023-08-06T02:42:19;16.65;;;3.70;;
62796;SDS011;48839;48.546;-4.178;2023-08-06T02:44:45;21.20;;;3.65;;
62796;SDS011;48839;48.546;-4.178;2023-08-06T02:47:11;16.75;;;3.83;;
62796;SDS011;48839;48.546;-4.178;2023-08-06T02:49:37;23.88;;;4.13;;
62796;SDS011;48839;48.546;-4.178;2023-08-06T02:52:03;18.98;;;4.68;;
62796;SDS011;48839;48.546;-4.178;2023-08-06T02:54:29;24.40;;;4.97;;
62796;SDS011;48839;48.546;-4.178;2023-08-06T02:56:56;22.35;;;4.38;;
62796;SDS011;48839;48.546;-4.178;2023-08-06T02:59:22;18.27;;;3.95;;
62796;SDS011;48839;48.546;-4.178;2023-08-06T03:01:48;15.13;;;3.38;;
62796;SDS011;48839;48.546;-4.178;2023-08-06T03:04:14;11.77;;;3.67;;
62796;SDS011;48839;48.546;-4.178;2023-08-06T03:06:40;21.58;;;4.00;;
62796;SDS011;48839;48.546;-4.178;2023-08-06T03:09:06;19.77;;;4.70;;
62796;SDS011;48839;48.546;-4.178;2023-08-06T03:11:32;20.60;;;3.47;;
62796;SDS011;48839;48.546;-4.178;2023-08-06T03:13:58;21.35;;;4.97;;
62796;SDS011;48839;48.546;-4.178;2023-08-06T03:16:24;26.30;;;4.03;;
62796;SDS011;48839;48.546;-4.178;2023-08-06T03:18:50;20.85;;;3.53;;
62796;SDS011;48839;48.546;-4.178;2023-08-06T03:21:16;24.73;;;4.28;;
62796;SDS011;48839;48.546;-4.178;2023-08-06T03:23:42;11.57;;;3.28;;
62796;SDS011;48839;48.546;-4.178;2023-08-06T03:26:08;19.88;;;3.92;;
62796;SDS011;48839;48.546;-4.178;2023-08-06T03:28:34;15.93;;;4.75;;
62796;SDS011;48839;48.546;-4.178;2023-08-06T03:31:00;18.42;;;3.35;;
62796;SDS011;48839;48.546;-4.178;2023-08-06T03:33:26;11.55;;;3.15;;
62796;SDS011;48839;48.546;-4.178;2023-08-06T03:35:53;13.85;;;3.17;;
62796;SDS011;48839;48.546;-4.178;2023-08-06T03:38:18;15.88;;;3.58;;
62796;SDS011;48839;48.546;-4.178;2023-08-06T03:40:46;14.93;;;2.63;;
62796;SDS011;48839;48.546;-4.178;2023-08-06T03:43:12;14.30;;;3.17;;
62796;SDS011;48839;48.546;-4.178;2023-08-06T03:45:38;13.32;;;3.55;;
62796;SDS011;48839;48.546;-4.178;2023-08-06T03:48:04;19.77;;;3.22;;
62796;SDS011;48839;48.546;-4.178;2023-08-06T03:50:30;17.10;;;3.47;;
62796;SDS011;48839;48.546;-4.178;2023-08-06T03:52:56;16.13;;;3.15;;
62796;SDS011;48839;48.546;-4.178;2023-08-06T03:55:22;17.55;;;3.17;;
62796;SDS011;48839;48.546;-4.178;2023-08-06T03:57:48;16.02;;;4.07;;
62796;SDS011;48839;48.546;-4.178;2023-08-06T04:00:14;13.55;;;3.72;;
62796;SDS011;48839;48.546;-4.178;2023-08-06T04:02:40;17.23;;;3.53;;
62796;SDS011;48839;48.546;-4.178;2023-08-06T04:05:06;17.52;;;3.95;;
62796;SDS011;48839;48.546;-4.178;2023-08-06T04:07:32;18.17;;;3.50;;
62796;SDS011;48839;48.546;-4.178;2023-08-06T04:09:58;14.38;;;3.40;;
62796;SDS011;48839;48.546;-4.178;2023-08-06T04:12:25;17.10;;;3.25;;
62796;SDS011;48839;48.546;-4.178;2023-08-06T04:14:51;17.45;;;4.82;;
62796;SDS011;48839;48.546;-4.178;2023-08-06T04:17:18;17.48;;;4.03;;
62796;SDS011;48839;48.546;-4.178;2023-08-06T04:19:50;25.95;;;3.58;;
62796;SDS011;48839;48.546;-4.178;2023-08-06T04:22:17;10.52;;;2.80;;
62796;SDS011;48839;48.546;-4.178;2023-08-06T04:24:43;18.00;;;3.70;;
62796;SDS011;48839;48.546;-4.178;2023-08-06T04:27:09;15.18;;;3.03;;
62796;SDS011;48839;48.546;-4.178;2023-08-06T04:29:36;17.25;;;3.60;;
62796;SDS011;48839;48.546;-4.178;2023-08-06T04:32:03;17.88;;;3.35;;
62796;SDS011;48839;48.546;-4.178;2023-08-06T04:34:29;19.70;;;4.25;;
62796;SDS011;48839;48.546;-4.178;2023-08-06T04:36:55;24.17;;;3.63;;
62796;SDS011;48839;48.546;-4.178;2023-08-06T04:39:21;15.60;;;3.28;;
62796;SDS011;48839;48.546;-4.178;2023-08-06T04:41:47;16.45;;;3.90;;
62796;SDS011;48839;48.546;-4.178;2023-08-06T04:44:13;17.30;;;3.95;;
62796;SDS011;48839;48.546;-4.178;2023-08-06T04:46:39;14.32;;;3.58;;
62796;SDS011;48839;48.546;-4.178;2023-08-06T04:49:05;15.63;;;3.67;;
62796;SDS011;48839;48.546;-4.178;2023-08-06T04:51:31;18.90;;;3.70;;
62796;SDS011;48839;48.546;-4.178;2023-08-06T04:53:57;13.57;;;3.20;;
62796;SDS011;48839;48.546;-4.178;2023-08-06T04:56:23;13.93;;;3.78;;
62796;SDS011;48839;48.546;-4.178;2023-08-06T04:58:49;19.42;;;3.33;;
62796;SDS011;48839;48.546;-4.178;2023-08-06T05:01:16;16.73;;;3.20;;
62796;SDS011;48839;48.546;-4.178;2023-08-06T05:03:42;18.98;;;3.15;;
62796;SDS011;48839;48.546;-4.178;2023-08-06T05:06:08;22.08;;;4.80;;
62796;SDS011;48839;48.546;-4.178;2023-08-06T05:08:34;21.70;;;3.63;;
62796;SDS011;48839;48.546;-4.178;2023-08-06T05:11:00;16.38;;;3.38;;
62796;SDS011;48839;48.546;-4.178;2023-08-06T05:13:26;18.88;;;3.38;;
62796;SDS011;48839;48.546;-4.178;2023-08-06T05:15:55;15.85;;;3.40;;
62796;SDS011;48839;48.546;-4.178;2023-08-06T05:18:21;14.98;;;3.67;;
62796;SDS011;48839;48.546;-4.178;2023-08-06T05:20:47;17.15;;;3.25;;
62796;SDS011;48839;48.546;-4.178;2023-08-06T05:23:14;24.58;;;4.47;;
62796;SDS011;48839;48.546;-4.178;2023-08-06T05:25:40;16.60;;;4.00;;
62796;SDS011;48839;48.546;-4.178;2023-08-06T05:28:06;19.10;;;3.35;;
62796;SDS011;48839;48.546;-4.178;2023-08-06T05:30:32;16.95;;;3.45;;
62796;SDS011;48839;48.546;-4.178;2023-08-06T05:32:58;16.90;;;3.45;;
62796;SDS011;48839;48.546;-4.178;2023-08-06T05:35:24;16.30;;;4.30;;
62796;SDS011;48839;48.546;-4.178;2023-08-06T05:37:50;22.27;;;3.60;;
62796;SDS011;48839;48.546;-4.178;2023-08-06T05:40:16;16.13;;;3.70;;
62796;SDS011;48839;48.546;-4.178;2023-08-06T05:42:42;14.75;;;3.50;;
62796;SDS011;48839;48.546;-4.178;2023-08-06T05:45:08;16.65;;;4.32;;
62796;SDS011;48839;48.546;-4.178;2023-08-06T05:47:35;14.45;;;4.07;;
62796;SDS011;48839;48.546;-4.178;2023-08-06T05:50:01;22.85;;;3.60;;
62796;SDS011;48839;48.546;-4.178;2023-08-06T05:52:27;10.85;;;2.70;;
62796;SDS011;48839;48.546;-4.178;2023-08-06T05:54:53;25.40;;;4.53;;
62796;SDS011;48839;48.546;-4.178;2023-08-06T05:57:20;21.17;;;4.15;;
62796;SDS011;48839;48.546;-4.178;2023-08-06T05:59:46;14.98;;;3.35;;
62796;SDS011;48839;48.546;-4.178;2023-08-06T06:02:12;20.65;;;4.97;;
62796;SDS011;48839;48.546;-4.178;2023-08-06T06:04:38;33.42;;;4.78;;
62796;SDS011;48839;48.546;-4.178;2023-08-06T06:07:04;21.50;;;3.95;;
62796;SDS011;48839;48.546;-4.178;2023-08-06T06:09:30;22.65;;;3.97;;
62796;SDS011;48839;48.546;-4.178;2023-08-06T06:11:56;18.30;;;3.30;;
62796;SDS011;48839;48.546;-4.178;2023-08-06T06:14:22;12.50;;;3.13;;
62796;SDS011;48839;48.546;-4.178;2023-08-06T06:16:48;16.63;;;3.67;;
62796;SDS011;48839;48.546;-4.178;2023-08-06T06:19:14;20.98;;;3.90;;
62796;SDS011;48839;48.546;-4.178;2023-08-06T06:21:40;18.60;;;3.10;;
62796;SDS011;48839;48.546;-4.178;2023-08-06T06:24:06;18.17;;;3.70;;
62796;SDS011;48839;48.546;-4.178;2023-08-06T06:26:33;16.38;;;3.30;;
62796;SDS011;48839;48.546;-4.178;2023-08-06T06:28:59;19.40;;;3.78;;
62796;SDS011;48839;48.546;-4.178;2023-08-06T06:31:25;11.48;;;2.80;;
62796;SDS011;48839;48.546;-4.178;2023-08-06T06:33:51;14.60;;;2.38;;
62796;SDS011;48839;48.546;-4.178;2023-08-06T06:36:19;8.70;;;2.33;;
62796;SDS011;48839;48.546;-4.178;2023-08-06T06:38:45;14.13;;;2.67;;
62796;SDS011;48839;48.546;-4.178;2023-08-06T06:41:11;10.77;;;2.47;;
62796;SDS011;48839;48.546;-4.178;2023-08-06T06:43:37;8.85;;;1.90;;
62796;SDS011;48839;48.546;-4.178;2023-08-06T06:46:04;7.97;;;2.35;;
62796;SDS011;48839;48.546;-4.178;2023-08-06T06:48:31;16.38;;;2.75;;
62796;SDS011;48839;48.546;-4.178;2023-08-06T06:50:57;9.35;;;2.50;;
62796;SDS011;48839;48.546;-4.178;2023-08-06T06:53:23;11.73;;;2.45;;
62796;SDS011;48839;48.546;-4.178;2023-08-06T06:55:53;14.80;;;2.90;;
62796;SDS011;48839;48.546;-4.178;2023-08-06T06:58:19;12.77;;;2.10;;
62796;SDS011;48839;48.546;-4.178;2023-08-06T07:00:46;5.25;;;1.60;;
62796;SDS011;48839;48.546;-4.178;2023-08-06T07:03:13;8.48;;;2.00;;
62796;SDS011;48839;48.546;-4.178;2023-08-06T07:05:39;10.48;;;2.50;;
62796;SDS011;48839;48.546;-4.178;2023-08-06T07:08:05;11.48;;;3.00;;
62796;SDS011;48839;48.546;-4.178;2023-08-06T07:10:31;9.55;;;2.10;;
62796;SDS011;48839;48.546;-4.178;2023-08-06T07:12:57;10.02;;;1.98;;
62796;SDS011;48839;48.546;-4.178;2023-08-06T07:15:23;7.70;;;2.15;;
62796;SDS011;48839;48.546;-4.178;2023-08-06T07:17:49;8.23;;;2.30;;
62796;SDS011;48839;48.546;-4.178;2023-08-06T07:20:15;11.02;;;2.10;;
62796;SDS011;48839;48.546;-4.178;2023-08-06T07:22:41;12.07;;;2.17;;
62796;SDS011;48839;48.546;-4.178;2023-08-06T07:25:07;9.23;;;2.05;;
62796;SDS011;48839;48.546;-4.178;2023-08-06T07:27:33;7.10;;;1.90;;
62796;SDS011;48839;48.546;-4.178;2023-08-06T07:29:59;8.18;;;2.60;;
62796;SDS011;48839;48.546;-4.178;2023-08-06T07:32:25;9.88;;;1.90;;
62796;SDS011;48839;48.546;-4.178;2023-08-06T07:34:52;9.52;;;2.35;;
62796;SDS011;48839;48.546;-4.178;2023-08-06T07:37:22;8.90;;;2.03;;
62796;SDS011;48839;48.546;-4.178;2023-08-06T07:39:48;9.10;;;1.90;;
62796;SDS011;48839;48.546;-4.178;2023-08-06T07:42:14;10.30;;;2.17;;
62796;SDS011;48839;48.546;-4.178;2023-08-06T07:44:40;7.40;;;2.22;;
62796;SDS011;48839;48.546;-4.178;2023-08-06T07:47:06;7.88;;;2.10;;
62796;SDS011;48839;48.546;-4.178;2023-08-06T07:49:32;9.30;;;3.00;;
62796;SDS011;48839;48.546;-4.178;2023-08-06T07:51:58;7.50;;;1.75;;
62796;SDS011;48839;48.546;-4.178;2023-08-06T07:54:24;8.00;;;1.30;;
62796;SDS011;48839;48.546;-4.178;2023-08-06T07:56:50;11.65;;;1.80;;
62796;SDS011;48839;48.546;-4.178;2023-08-06T07:59:16;5.53;;;1.70;;
62796;SDS011;48839;48.546;-4.178;2023-08-06T08:01:42;4.72;;;1.30;;
62796;SDS011;48839;48.546;-4.178;2023-08-06T08:04:08;6.28;;;1.75;;
62796;SDS011;48839;48.546;-4.178;2023-08-06T08:06:34;7.18;;;1.63;;
62796;SDS011;48839;48.546;-4.178;2023-08-06T08:09:00;6.50;;;1.40;;
62796;SDS011;48839;48.546;-4.178;2023-08-06T08:11:27;6.95;;;1.85;;
62796;SDS011;48839;48.546;-4.178;2023-08-06T08:13:53;5.82;;;1.70;;
62796;SDS011;48839;48.546;-4.178;2023-08-06T08:16:19;8.73;;;2.22;;
62796;SDS011;48839;48.546;-4.178;2023-08-06T08:18:45;6.40;;;1.50;;
62796;SDS011;48839;48.546;-4.178;2023-08-06T08:21:11;4.55;;;1.35;;
62796;SDS011;48839;48.546;-4.178;2023-08-06T08:23:36;4.65;;;1.52;;
62796;SDS011;48839;48.546;-4.178;2023-08-06T08:26:04;7.30;;;1.40;;
62796;SDS011;48839;48.546;-4.178;2023-08-06T08:28:30;4.32;;;1.40;;
62796;SDS011;48839;48.546;-4.178;2023-08-06T08:30:56;5.57;;;1.75;;
62796;SDS011;48839;48.546;-4.178;2023-08-06T08:33:22;5.30;;;1.77;;
62796;SDS011;48839;48.546;-4.178;2023-08-06T08:35:48;5.43;;;1.73;;
62796;SDS011;48839;48.546;-4.178;2023-08-06T08:38:14;6.72;;;1.65;;
62796;SDS011;48839;48.546;-4.178;2023-08-06T08:40:42;4.75;;;1.20;;
62796;SDS011;48839;48.546;-4.178;2023-08-06T08:43:12;2.90;;;1.65;;
62796;SDS011;48839;48.546;-4.178;2023-08-06T08:45:39;9.20;;;1.55;;
62796;SDS011;48839;48.546;-4.178;2023-08-06T08:48:05;3.45;;;1.35;;
62796;SDS011;48839;48.546;-4.178;2023-08-06T08:50:32;4.97;;;1.40;;
62796;SDS011;48839;48.546;-4.178;2023-08-06T08:52:58;5.07;;;1.60;;
62796;SDS011;48839;48.546;-4.178;2023-08-06T08:55:24;5.88;;;1.75;;
62796;SDS011;48839;48.546;-4.178;2023-08-06T08:57:51;22.50;;;2.75;;
62796;SDS011;48839;48.546;-4.178;2023-08-06T09:00:17;3.75;;;1.50;;
62796;SDS011;48839;48.546;-4.178;2023-08-06T09:02:43;4.00;;;1.58;;
62796;SDS011;48839;48.546;-4.178;2023-08-06T09:05:10;2.97;;;1.40;;
62796;SDS011;48839;48.546;-4.178;2023-08-06T09:07:39;10.00;;;1.67;;
62796;SDS011;48839;48.546;-4.178;2023-08-06T09:10:08;5.25;;;1.15;;
62796;SDS011;48839;48.546;-4.178;2023-08-06T09:12:36;6.82;;;1.48;;
62796;SDS011;48839;48.546;-4.178;2023-08-06T09:15:02;3.83;;;1.60;;
62796;SDS011;48839;48.546;-4.178;2023-08-06T09:17:28;7.63;;;1.67;;
62796;SDS011;48839;48.546;-4.178;2023-08-06T09:19:54;6.00;;;1.40;;
62796;SDS011;48839;48.546;-4.178;2023-08-06T09:22:20;5.93;;;1.30;;
62796;SDS011;48839;48.546;-4.178;2023-08-06T09:24:46;5.70;;;1.35;;
62796;SDS011;48839;48.546;-4.178;2023-08-06T09:27:13;3.83;;;1.15;;
62796;SDS011;48839;48.546;-4.178;2023-08-06T09:29:40;4.50;;;2.00;;
62796;SDS011;48839;48.546;-4.178;2023-08-06T09:32:06;3.58;;;1.10;;
62796;SDS011;48839;48.546;-4.178;2023-08-06T09:34:32;3.50;;;1.10;;
62796;SDS011;48839;48.546;-4.178;2023-08-06T09:36:58;4.70;;;1.40;;
62796;SDS011;48839;48.546;-4.178;2023-08-06T09:39:27;5.47;;;1.27;;
62796;SDS011;48839;48.546;-4.178;2023-08-06T09:41:57;2.33;;;0.98;;
62796;SDS011;48839;48.546;-4.178;2023-08-06T09:44:24;3.85;;;1.67;;
62796;SDS011;48839;48.546;-4.178;2023-08-06T09:46:54;9.05;;;1.83;;
62796;SDS011;48839;48.546;-4.178;2023-08-06T09:49:21;3.08;;;1.20;;
62796;SDS011;48839;48.546;-4.178;2023-08-06T09:51:47;7.40;;;1.45;;
62796;SDS011;48839;48.546;-4.178;2023-08-06T09:54:16;5.13;;;1.20;;
62796;SDS011;48839;48.546;-4.178;2023-08-06T09:56:44;5.10;;;1.00;;
62796;SDS011;48839;48.546;-4.178;2023-08-06T09:59:10;3.95;;;1.25;;
62796;SDS011;48839;48.546;-4.178;2023-08-06T10:01:36;2.63;;;1.10;;
62796;SDS011;48839;48.546;-4.178;2023-08-06T10:04:03;3.60;;;1.20;;
62796;SDS011;48839;48.546;-4.178;2023-08-06T10:06:29;3.03;;;1.38;;
62796;SDS011;48839;48.546;-4.178;2023-08-06T10:08:55;4.07;;;1.10;;
62796;SDS011;48839;48.546;-4.178;2023-08-06T10:11:22;3.90;;;1.30;;
62796;SDS011;48839;48.546;-4.178;2023-08-06T10:13:51;3.47;;;0.98;;
62796;SDS011;48839;48.546;-4.178;2023-08-06T10:16:18;2.88;;;1.27;;
62796;SDS011;48839;48.546;-4.178;2023-08-06T10:18:44;4.18;;;1.27;;
62796;SDS011;48839;48.546;-4.178;2023-08-06T10:21:10;5.85;;;1.77;;
62796;SDS011;48839;48.546;-4.178;2023-08-06T10:23:36;5.50;;;1.63;;
62796;SDS011;48839;48.546;-4.178;2023-08-06T10:26:03;4.03;;;1.23;;
62796;SDS011;48839;48.546;-4.178;2023-08-06T10:28:36;3.28;;;1.73;;
62796;SDS011;48839;48.546;-4.178;2023-08-06T10:31:02;4.05;;;1.27;;
62796;SDS011;48839;48.546;-4.178;2023-08-06T10:33:45;3.95;;;1.02;;
62796;SDS011;48839;48.546;-4.178;2023-08-06T10:36:11;5.78;;;1.38;;
62796;SDS011;48839;48.546;-4.178;2023-08-06T10:38:47;3.60;;;1.27;;
62796;SDS011;48839;48.546;-4.178;2023-08-06T10:41:22;4.57;;;1.60;;
62796;SDS011;48839;48.546;-4.178;2023-08-06T10:43:49;6.72;;;1.50;;
62796;SDS011;48839;48.546;-4.178;2023-08-06T10:46:23;6.75;;;1.52;;
62796;SDS011;48839;48.546;-4.178;2023-08-06T10:48:49;5.88;;;1.33;;
62796;SDS011;48839;48.546;-4.178;2023-08-06T10:51:16;3.30;;;0.80;;
62796;SDS011;48839;48.546;-4.178;2023-08-06T10:53:46;4.28;;;1.50;;
62796;SDS011;48839;48.546;-4.178;2023-08-06T10:56:16;5.07;;;1.33;;
62796;SDS011;48839;48.546;-4.178;2023-08-06T10:58:43;6.28;;;1.35;;
62796;SDS011;48839;48.546;-4.178;2023-08-06T11:01:10;3.60;;;1.38;;
62796;SDS011;48839;48.546;-4.178;2023-08-06T11:03:36;3.67;;;1.20;;
62796;SDS011;48839;48.546;-4.178;2023-08-06T11:06:03;5.30;;;1.80;;
62796;SDS011;48839;48.546;-4.178;2023-08-06T11:08:33;8.52;;;2.50;;
62796;SDS011;48839;48.546;-4.178;2023-08-06T11:11:12;4.10;;;1.88;;
62796;SDS011;48839;48.546;-4.178;2023-08-06T11:13:42;4.47;;;1.60;;
62796;SDS011;48839;48.546;-4.178;2023-08-06T11:16:09;2.72;;;1.17;;
62796;SDS011;48839;48.546;-4.178;2023-08-06T11:18:35;4.53;;;1.45;;
62796;SDS011;48839;48.546;-4.178;2023-08-06T11:21:01;1.83;;;0.85;;
62796;SDS011;48839;48.546;-4.178;2023-08-06T11:23:28;4.15;;;1.23;;
62796;SDS011;48839;48.546;-4.178;2023-08-06T11:25:54;3.22;;;0.93;;
62796;SDS011;48839;48.546;-4.178;2023-08-06T11:28:20;4.30;;;1.17;;
62796;SDS011;48839;48.546;-4.178;2023-08-06T11:30:47;4.10;;;1.00;;
62796;SDS011;48839;48.546;-4.178;2023-08-06T11:33:13;2.75;;;1.10;;
62796;SDS011;48839;48.546;-4.178;2023-08-06T11:35:39;3.88;;;0.82;;
62796;SDS011;48839;48.546;-4.178;2023-08-06T11:38:06;2.65;;;0.85;;
62796;SDS011;48839;48.546;-4.178;2023-08-06T11:40:32;3.25;;;1.25;;
62796;SDS011;48839;48.546;-4.178;2023-08-06T11:42:58;7.47;;;1.50;;
62796;SDS011;48839;48.546;-4.178;2023-08-06T11:45:24;2.45;;;1.00;;
62796;SDS011;48839;48.546;-4.178;2023-08-06T11:47:51;5.38;;;0.95;;
62796;SDS011;48839;48.546;-4.178;2023-08-06T11:50:27;3.65;;;1.30;;
62796;SDS011;48839;48.546;-4.178;2023-08-06T11:52:57;3.90;;;0.98;;
62796;SDS011;48839;48.546;-4.178;2023-08-06T11:55:24;3.15;;;1.10;;
62796;SDS011;48839;48.546;-4.178;2023-08-06T11:57:50;4.97;;;0.98;;
62796;SDS011;48839;48.546;-4.178;2023-08-06T12:00:17;5.13;;;1.27;;
62796;SDS011;48839;48.546;-4.178;2023-08-06T12:02:46;3.88;;;1.00;;
62796;SDS011;48839;48.546;-4.178;2023-08-06T12:05:14;2.08;;;1.10;;
62796;SDS011;48839;48.546;-4.178;2023-08-06T12:07:44;2.80;;;0.95;;
62796;SDS011;48839;48.546;-4.178;2023-08-06T12:10:11;2.35;;;0.98;;
62796;SDS011;48839;48.546;-4.178;2023-08-06T12:12:37;4.43;;;0.82;;
62796;SDS011;48839;48.546;-4.178;2023-08-06T12:15:04;6.32;;;1.30;;
62796;SDS011;48839;48.546;-4.178;2023-08-06T12:17:31;4.32;;;1.08;;
62796;SDS011;48839;48.546;-4.178;2023-08-06T12:19:57;3.25;;;0.80;;
62796;SDS011;48839;48.546;-4.178;2023-08-06T12:22:23;2.60;;;0.70;;
62796;SDS011;48839;48.546;-4.178;2023-08-06T12:24:49;5.10;;;1.48;;
62796;SDS011;48839;48.546;-4.178;2023-08-06T12:27:15;4.78;;;0.93;;
62796;SDS011;48839;48.546;-4.178;2023-08-06T12:29:45;5.35;;;1.20;;
62796;SDS011;48839;48.546;-4.178;2023-08-06T12:32:11;2.28;;;0.85;;
62796;SDS011;48839;48.546;-4.178;2023-08-06T12:34:41;3.70;;;1.05;;
62796;SDS011;48839;48.546;-4.178;2023-08-06T12:37:08;2.67;;;1.00;;
62796;SDS011;48839;48.546;-4.178;2023-08-06T12:39:35;2.30;;;0.73;;
62796;SDS011;48839;48.546;-4.178;2023-08-06T12:42:01;3.25;;;0.98;;
62796;SDS011;48839;48.546;-4.178;2023-08-06T12:44:28;5.57;;;1.25;;
62796;SDS011;48839;48.546;-4.178;2023-08-06T12:46:54;2.78;;;0.93;;
62796;SDS011;48839;48.546;-4.178;2023-08-06T12:49:20;2.13;;;0.80;;
62796;SDS011;48839;48.546;-4.178;2023-08-06T12:51:47;3.97;;;0.70;;
62796;SDS011;48839;48.546;-4.178;2023-08-06T12:54:13;4.22;;;0.80;;
62796;SDS011;48839;48.546;-4.178;2023-08-06T12:56:39;4.00;;;0.80;;
62796;SDS011;48839;48.546;-4.178;2023-08-06T12:59:05;5.93;;;1.10;;
62796;SDS011;48839;48.546;-4.178;2023-08-06T13:01:31;4.65;;;1.02;;
62796;SDS011;48839;48.546;-4.178;2023-08-06T13:03:57;1.52;;;0.70;;
62796;SDS011;48839;48.546;-4.178;2023-08-06T13:06:24;3.75;;;0.90;;
62796;SDS011;48839;48.546;-4.178;2023-08-06T13:08:50;3.17;;;0.80;;
62796;SDS011;48839;48.546;-4.178;2023-08-06T13:11:16;5.13;;;0.90;;
62796;SDS011;48839;48.546;-4.178;2023-08-06T13:13:42;1.13;;;0.73;;
62796;SDS011;48839;48.546;-4.178;2023-08-06T13:16:08;2.47;;;0.68;;
62796;SDS011;48839;48.546;-4.178;2023-08-06T13:18:34;1.42;;;0.82;;
62796;SDS011;48839;48.546;-4.178;2023-08-06T13:21:00;1.98;;;0.70;;
62796;SDS011;48839;48.546;-4.178;2023-08-06T13:23:26;2.38;;;0.80;;
62796;SDS011;48839;48.546;-4.178;2023-08-06T13:25:52;2.78;;;0.80;;
62796;SDS011;48839;48.546;-4.178;2023-08-06T13:28:18;3.28;;;0.80;;
62796;SDS011;48839;48.546;-4.178;2023-08-06T13:30:44;2.38;;;0.80;;
62796;SDS011;48839;48.546;-4.178;2023-08-06T13:33:11;2.22;;;0.90;;
62796;SDS011;48839;48.546;-4.178;2023-08-06T13:35:37;3.03;;;0.82;;
62796;SDS011;48839;48.546;-4.178;2023-08-06T13:38:04;4.40;;;0.73;;
62796;SDS011;48839;48.546;-4.178;2023-08-06T13:40:32;2.50;;;0.80;;
62796;SDS011;48839;48.546;-4.178;2023-08-06T13:42:58;4.93;;;1.15;;
62796;SDS011;48839;48.546;-4.178;2023-08-06T13:45:24;2.92;;;0.90;;
62796;SDS011;48839;48.546;-4.178;2023-08-06T13:47:51;2.25;;;0.70;;
62796;SDS011;48839;48.546;-4.178;2023-08-06T13:50:17;3.15;;;1.20;;
62796;SDS011;48839;48.546;-4.178;2023-08-06T13:52:44;2.75;;;0.65;;
62796;SDS011;48839;48.546;-4.178;2023-08-06T13:55:10;3.65;;;0.70;;
62796;SDS011;48839;48.546;-4.178;2023-08-06T13:57:36;3.72;;;1.73;;
62796;SDS011;48839;48.546;-4.178;2023-08-06T14:00:02;1.70;;;1.13;;
62796;SDS011;48839;48.546;-4.178;2023-08-06T14:02:28;3.00;;;0.88;;
62796;SDS011;48839;48.546;-4.178;2023-08-06T14:04:54;2.58;;;0.75;;
62796;SDS011;48839;48.546;-4.178;2023-08-06T14:07:20;2.40;;;1.10;;
62796;SDS011;48839;48.546;-4.178;2023-08-06T14:09:46;2.92;;;1.15;;
62796;SDS011;48839;48.546;-4.178;2023-08-06T14:12:14;2.95;;;0.90;;
62796;SDS011;48839;48.546;-4.178;2023-08-06T14:14:40;3.25;;;1.10;;
62796;SDS011;48839;48.546;-4.178;2023-08-06T14:17:06;5.38;;;1.20;;
62796;SDS011;48839;48.546;-4.178;2023-08-06T14:19:32;2.78;;;1.00;;
62796;SDS011;48839;48.546;-4.178;2023-08-06T14:21:58;3.50;;;1.05;;
62796;SDS011;48839;48.546;-4.178;2023-08-06T14:24:24;2.63;;;0.80;;
62796;SDS011;48839;48.546;-4.178;2023-08-06T14:26:50;3.75;;;1.10;;
62796;SDS011;48839;48.546;-4.178;2023-08-06T14:29:16;4.47;;;1.08;;
62796;SDS011;48839;48.546;-4.178;2023-08-06T14:31:43;6.50;;;1.25;;
62796;SDS011;48839;48.546;-4.178;2023-08-06T14:34:09;5.07;;;1.10;;